WET,Max TemperatureF,Mean TemperatureF,Min TemperatureF,Max Dew PointF,MeanDew PointF,Min DewpointF,Max Humidity, Mean Humidity, Min Humidity, Max Sea Level PressureIn, Mean Sea Level PressureIn, Min Sea Level PressureIn, Max VisibilityMiles, Mean VisibilityMiles, Min VisibilityMiles, Max Wind SpeedMPH, Mean Wind SpeedMPH, Max Gust SpeedMPH,PrecipitationIn, CloudCover, Events, WindDirDegrees
2010-10-1,100,84,68,54,49,39,56,32,12,30.04,29.95,29.89,6,6,5,13,5,,0.00,2,,16
2010-10-2,93,80,68,59,53,46,64,43,20,30.09,30.00,29.95,6,6,5,15,5,,0.00,4,,257
2010-10-3,91,80,68,59,57,55,68,50,29,30.09,30.05,30.01,6,6,6,17,7,,0.00,4,,260
2010-10-4,84,72,60,64,58,52,88,67,37,30.06,30.00,29.92,6,6,6,14,6,,0.00,4,,282
2010-10-5,78,70,62,59,57,52,88,63,47,29.95,29.89,29.83,6,6,5,12,7,,0.00,5,,9
2010-10-6,78,70,62,57,55,50,73,59,44,29.92,29.87,29.83,6,6,5,9,5,,0.00,5,,268
2010-10-7,80,70,60,57,56,54,82,62,42,30.01,29.95,29.89,6,6,5,10,5,,0.00,2,,265
2010-10-8,86,73,60,55,53,50,77,53,31,30.01,29.95,29.89,6,6,6,10,5,,0.00,3,,335
2010-10-9,86,75,64,63,55,48,78,57,35,30.01,29.96,29.89,6,6,4,22,6,34,0.00,4,,330
2010-10-10,71,66,62,63,59,55,100,79,57,30.01,29.93,29.83,6,6,2,17,9,25,0.00,6,Rain,249
2010-10-11,69,64,59,64,60,57,100,83,64,29.80,29.73,29.65,6,6,1,22,11,34,0.00,5,Rain,260
2010-10-12,73,65,57,59,56,52,100,68,47,29.92,29.84,29.80,6,6,5,14,6,,0.00,4,,261
2010-10-13,77,67,57,61,55,50,100,68,41,29.95,29.93,29.89,6,6,6,8,3,,0.00,4,,286
2010-10-14,80,70,59,61,57,52,100,69,37,30.01,29.96,29.95,6,6,4,12,5,,0.00,3,,229
2010-10-15,80,70,59,59,55,48,94,62,32,29.98,29.93,29.89,6,6,5,13,6,,0.00,4,,257
2010-10-16,80,70,59,57,53,50,82,59,36,29.98,29.94,29.89,6,6,5,9,6,,0.00,3,,249
2010-10-17,82,70,59,55,53,52,77,55,35,30.04,29.99,29.95,6,6,6,12,5,,0.00,1,,39
2010-10-18,82,71,60,55,51,32,77,52,19,30.04,29.99,29.95,5,5,5,7,3,,0.00,6,,360
2010-10-19,69,64,60,54,50,48,72,58,49,30.01,29.98,29.95,6,5,5,9,4,,0.00,6,,249
2010-10-20,80,71,62,52,46,37,68,47,21,30.06,30.00,29.95,6,6,6,7,4,,0.00,3,,321
2010-10-21,84,70,55,55,50,45,94,52,26,30.12,30.06,30.01,6,6,5,8,4,,0.00,2,,320
2010-10-22,84,72,60,55,52,50,72,53,33,30.12,30.08,30.04,6,5,5,12,4,,0.00,6,,279
2010-10-23,75,67,59,59,56,52,94,69,50,30.06,30.04,30.01,5,4,3,15,5,18,0.00,5,Rain-Thunderstorm,205
2010-10-24,71,64,57,59,57,55,100,79,57,30.09,30.05,30.01,5,5,3,9,4,,0.00,2,,86
2010-10-25,77,66,55,59,55,50,100,70,44,30.15,30.10,30.06,6,6,4,9,5,,0.00,3,,70
2010-10-26,80,66,53,54,50,41,94,58,24,30.24,30.16,30.12,6,6,5,8,5,,0.00,1,,75
2010-10-27,86,70,53,52,47,34,82,49,15,30.24,30.21,30.18,,,,8,4,,0.00,,,47
2010-10-28,86,72,57,50,44,39,72,40,19,30.24,30.19,30.15,4,4,4,8,3,,0.00,,,271
2010-10-29,86,72,57,46,40,32,67,36,16,30.18,30.12,30.06,6,5,4,15,5,,0.00,6,,223
2010-10-30,78,66,55,57,44,36,88,45,22,30.15,30.09,30.06,6,5,3,12,5,,0.00,3,,255
2010-10-31,75,68,60,59,57,52,94,76,47,30.18,30.11,30.06,6,6,3,15,7,,0.00,6,Rain,267